Time;durP1;ratioP1;P1;durP2;ratioP2;P2;SDS_P1;SDS_P2;PMS_P1;PMS_P2;Temp;Humidity;BMP_temperature;BMP_pressure;BME280_temperature;BME280_humidity;BME280_pressure;Samples;Min_cycle;Max_cycle;Signal;HPM_P1;HPM_P2
2021/08/26 00:06:56;;;;;;;0.20;0.00;;;;;;;;;;5031925;28;20493;-72
2021/08/26 00:09:23;;;;;;;1.30;0.20;;;;;;;;;;5042415;28;20439;-72
2021/08/26 00:11:52;;;;;;;1.95;0.20;;;;;;;;;;5049071;28;20017;-72
2021/08/26 00:14:23;;;;;;;0.30;0.10;;;;;;;;;;5037746;28;20071;-71
2021/08/26 00:16:50;;;;;;;0.50;0.10;;;;;;;;;;5040267;28;20052;-72
2021/08/26 00:19:19;;;;;;;0.28;0.00;;;;;;;;;;5037444;28;20030;-72
2021/08/26 00:21:47;;;;;;;0.10;0.00;;;;;;;;;;5035241;28;20013;-72
2021/08/26 00:24:14;;;;;;;1.20;0.20;;;;;;;;;;5040580;28;20030;-71
2021/08/26 00:26:41;;;;;;;0.50;0.10;;;;;;;;;;5035993;28;20136;-73
2021/08/26 00:29:08;;;;;;;0.17;0.03;;;;;;;;;;5037589;28;20064;-71
2021/08/26 00:31:35;;;;;;;1.38;0.10;;;;;;;;;;5048391;28;20021;-73
2021/08/26 00:34:02;;;;;;;0.10;0.00;;;;;;;;;;5033398;28;20029;-73
2021/08/26 00:36:30;;;;;;;0.00;0.00;;;;;;;;;;5032487;28;20049;-72
2021/08/26 00:38:57;;;;;;;1.20;0.10;;;;;;;;;;5032940;28;20037;-73
2021/08/26 00:41:26;;;;;;;1.55;0.10;;;;;;;;;;5051033;28;20374;-72
2021/08/26 00:43:53;;;;;;;1.20;0.10;;;;;;;;;;5036085;28;20034;-72
2021/08/26 00:46:20;;;;;;;1.67;0.57;;;;;;;;;;5038447;28;20033;-73
2021/08/26 00:48:50;;;;;;;2.58;1.45;;;;;;;;;;5034028;28;20025;-71
2021/08/26 00:51:17;;;;;;;0.60;0.30;;;;;;;;;;5030554;28;20036;-71
2021/08/26 00:53:45;;;;;;;0.95;0.15;;;;;;;;;;5032564;28;20104;-73
2021/08/26 00:56:15;;;;;;;0.20;0.15;;;;;;;;;;5034565;28;20053;-73
2021/08/26 00:58:50;;;;;;;0.52;0.17;;;;;;;;;;5041490;28;20026;-72
2021/08/26 01:01:29;;;;;;;0.32;0.10;;;;;;;;;;5039092;28;20494;-71
2021/08/26 01:04:15;;;;;;;0.08;0.08;;;;;;;;;;5044639;28;20382;-72
2021/08/26 01:06:53;;;;;;;0.32;0.10;;;;;;;;;;5035815;28;20028;-72
2021/08/26 01:09:21;;;;;;;0.82;0.20;;;;;;;;;;5040001;28;20159;-72
2021/08/26 01:11:49;;;;;;;0.77;0.50;;;;;;;;;;5051345;28;20056;-71
2021/08/26 01:14:16;;;;;;;2.33;0.30;;;;;;;;;;5038870;28;20025;-72
2021/08/26 01:16:44;;;;;;;0.38;0.10;;;;;;;;;;5034140;28;20033;-72
2021/08/26 01:19:11;;;;;;;2.47;0.30;;;;;;;;;;5037735;28;20494;-71
2021/08/26 01:21:38;;;;;;;0.73;0.20;;;;;;;;;;5035276;28;20025;-71
2021/08/26 01:24:06;;;;;;;2.05;0.10;;;;;;;;;;5038571;28;20117;-72
2021/08/26 01:26:47;;;;;;;0.85;0.20;;;;;;;;;;5034994;28;20452;-72
2021/08/26 01:29:15;;;;;;;0.55;0.10;;;;;;;;;;5042854;28;20386;-72
2021/08/26 01:31:44;;;;;;;0.32;0.10;;;;;;;;;;5038627;28;21662;-73
2021/08/26 01:34:11;;;;;;;0.80;0.20;;;;;;;;;;5038012;28;20025;-72
2021/08/26 01:36:38;;;;;;;1.90;0.73;;;;;;;;;;5036491;28;20043;-73
2021/08/26 01:39:10;;;;;;;2.38;0.20;;;;;;;;;;5042880;28;20052;-73
2021/08/26 01:41:49;;;;;;;0.20;0.10;;;;;;;;;;5038916;28;20386;-73
2021/08/26 01:44:29;;;;;;;0.98;0.10;;;;;;;;;;5039145;28;20028;-72
2021/08/26 01:47:04;;;;;;;0.43;0.10;;;;;;;;;;5037345;28;20038;-72
2021/08/26 01:49:31;;;;;;;0.90;0.30;;;;;;;;;;5037792;28;20017;-73
2021/08/26 01:51:58;;;;;;;0.57;0.20;;;;;;;;;;5035886;28;20071;-74
2021/08/26 01:54:26;;;;;;;2.45;0.10;;;;;;;;;;5039226;28;20117;-72
2021/08/26 01:56:53;;;;;;;0.30;0.10;;;;;;;;;;5036496;28;20044;-69
2021/08/26 01:59:20;;;;;;;0.85;0.10;;;;;;;;;;5038355;28;20029;-69
2021/08/26 02:01:47;;;;;;;0.52;0.20;;;;;;;;;;5039021;28;20529;-69
2021/08/26 02:04:14;;;;;;;0.93;0.00;;;;;;;;;;5039701;28;20037;-70
2021/08/26 02:06:41;;;;;;;0.40;0.10;;;;;;;;;;5036642;28;20057;-70
2021/08/26 02:09:08;;;;;;;0.73;0.13;;;;;;;;;;5036432;28;20036;-69
2021/08/26 02:11:36;;;;;;;0.75;0.10;;;;;;;;;;5036659;28;20031;-71
2021/08/26 02:14:04;;;;;;;0.22;0.00;;;;;;;;;;5040863;28;20548;-69
2021/08/26 02:16:31;;;;;;;0.63;0.10;;;;;;;;;;5036821;28;20453;-69
2021/08/26 02:18:58;;;;;;;0.32;0.00;;;;;;;;;;5044246;28;20025;-70
2021/08/26 02:21:28;;;;;;;1.23;0.10;;;;;;;;;;5034305;28;20030;-69
2021/08/26 02:23:55;;;;;;;1.48;0.20;;;;;;;;;;5037958;28;20021;-69
2021/08/26 02:26:23;;;;;;;1.83;0.22;;;;;;;;;;5039224;28;20049;-70
2021/08/26 02:28:50;;;;;;;1.17;0.10;;;;;;;;;;5032982;28;20659;-68
2021/08/26 02:31:17;;;;;;;0.43;0.10;;;;;;;;;;5038833;28;20651;-69
2021/08/26 02:33:45;;;;;;;1.40;0.05;;;;;;;;;;5036161;28;20061;-69
2021/08/26 02:36:12;;;;;;;0.10;0.00;;;;;;;;;;5035469;28;20076;-69
2021/08/26 02:38:39;;;;;;;1.25;0.45;;;;;;;;;;5032976;28;20046;-70
2021/08/26 02:41:06;;;;;;;1.33;0.20;;;;;;;;;;5041658;28;20022;-69
2021/08/26 02:43:33;;;;;;;2.28;0.20;;;;;;;;;;5033717;28;20033;-69
2021/08/26 02:46:00;;;;;;;2.28;0.22;;;;;;;;;;5033758;28;20554;-68
2021/08/26 02:48:27;;;;;;;2.08;0.22;;;;;;;;;;5041044;28;20026;-69
2021/08/26 02:50:55;;;;;;;0.60;0.20;;;;;;;;;;5033842;28;20458;-70
2021/08/26 02:53:22;;;;;;;4.70;0.30;;;;;;;;;;5034152;28;20076;-70
2021/08/26 02:55:49;;;;;;;1.77;0.57;;;;;;;;;;5038796;28;20028;-69
2021/08/26 02:58:16;;;;;;;4.13;0.52;;;;;;;;;;5046046;28;20033;-68
2021/08/26 03:00:43;;;;;;;2.78;0.40;;;;;;;;;;5037207;28;20035;-69
2021/08/26 03:03:10;;;;;;;3.45;0.77;;;;;;;;;;5034220;28;20381;-69
2021/08/26 03:05:38;;;;;;;3.15;0.75;;;;;;;;;;5038902;28;20101;-69
2021/08/26 03:08:05;;;;;;;2.13;0.68;;;;;;;;;;5038741;28;20026;-69
2021/08/26 03:10:32;;;;;;;0.63;0.20;;;;;;;;;;5033381;28;20036;-69
2021/08/26 03:12:59;;;;;;;2.88;0.30;;;;;;;;;;5033462;28;20505;-70
2021/08/26 03:15:26;;;;;;;1.40;0.30;;;;;;;;;;5033093;28;20036;-70
2021/08/26 03:17:53;;;;;;;2.17;0.52;;;;;;;;;;5032167;28;20505;-69
2021/08/26 03:20:21;;;;;;;0.60;0.25;;;;;;;;;;5041128;28;20041;-70
2021/08/26 03:22:49;;;;;;;2.42;0.70;;;;;;;;;;5037933;28;20032;-70
2021/08/26 03:25:16;;;;;;;5.43;1.52;;;;;;;;;;5033753;28;20426;-69
2021/08/26 03:27:43;;;;;;;1.88;0.47;;;;;;;;;;5039953;28;20032;-69
2021/08/26 03:30:10;;;;;;;7.05;1.40;;;;;;;;;;5040095;28;20175;-69
2021/08/26 03:32:38;;;;;;;2.00;0.28;;;;;;;;;;5038522;28;20032;-70
2021/08/26 03:35:05;;;;;;;2.28;0.22;;;;;;;;;;5041173;28;20017;-70
2021/08/26 03:37:33;;;;;;;5.10;0.30;;;;;;;;;;5033462;28;20059;-69
2021/08/26 03:40:00;;;;;;;2.05;0.35;;;;;;;;;;5043424;28;20035;-70
2021/08/26 03:42:27;;;;;;;4.25;0.30;;;;;;;;;;5041720;28;20036;-69
2021/08/26 03:44:54;;;;;;;1.45;0.30;;;;;;;;;;5031164;28;20036;-69
2021/08/26 03:47:21;;;;;;;4.25;0.30;;;;;;;;;;5036771;28;20151;-69
2021/08/26 03:49:49;;;;;;;2.03;0.28;;;;;;;;;;5035548;28;20025;-69
2021/08/26 03:52:16;;;;;;;1.38;0.22;;;;;;;;;;5039083;28;20017;-69
2021/08/26 03:54:43;;;;;;;0.98;0.40;;;;;;;;;;5037868;28;20392;-70
2021/08/26 03:57:10;;;;;;;1.30;0.50;;;;;;;;;;5047015;28;20048;-69
2021/08/26 03:59:37;;;;;;;0.85;0.10;;;;;;;;;;5037566;28;20026;-70
2021/08/26 04:02:04;;;;;;;2.40;0.45;;;;;;;;;;5043430;28;20025;-71
2021/08/26 04:04:32;;;;;;;2.75;0.30;;;;;;;;;;5043501;28;20034;-70
2021/08/26 04:06:59;;;;;;;1.35;0.30;;;;;;;;;;5033960;28;20486;-70
2021/08/26 04:09:26;;;;;;;0.93;0.20;;;;;;;;;;5037649;28;20032;-71
2021/08/26 04:11:53;;;;;;;8.82;1.20;;;;;;;;;;5032809;28;20053;-70
2021/08/26 04:14:20;;;;;;;4.15;0.47;;;;;;;;;;5034868;28;20017;-71
2021/08/26 04:16:50;;;;;;;4.97;0.88;;;;;;;;;;5035997;28;20021;-70
2021/08/26 04:19:17;;;;;;;0.90;0.17;;;;;;;;;;5037069;28;20040;-71
2021/08/26 04:21:44;;;;;;;1.73;0.30;;;;;;;;;;5036231;28;20028;-71
2021/08/26 04:24:11;;;;;;;1.40;0.25;;;;;;;;;;5039043;28;20087;-70
2021/08/26 04:26:39;;;;;;;5.50;0.30;;;;;;;;;;5032945;28;20115;-70
2021/08/26 04:29:08;;;;;;;2.20;0.60;;;;;;;;;;5040064;28;20072;-70
2021/08/26 04:31:35;;;;;;;3.05;0.38;;;;;;;;;;5042337;28;20563;-70
2021/08/26 04:34:03;;;;;;;2.65;0.20;;;;;;;;;;5033958;28;20104;-71
2021/08/26 04:36:30;;;;;;;1.92;0.22;;;;;;;;;;5044773;28;20036;-69
2021/08/26 04:39:00;;;;;;;7.53;1.10;;;;;;;;;;5039269;28;20520;-68
2021/08/26 04:41:27;;;;;;;0.85;0.30;;;;;;;;;;5043716;28;20025;-68
2021/08/26 04:43:54;;;;;;;4.07;0.30;;;;;;;;;;5047393;28;20029;-69
2021/08/26 04:46:21;;;;;;;1.83;0.40;;;;;;;;;;5044766;28;20033;-68
2021/08/26 04:48:48;;;;;;;5.57;0.57;;;;;;;;;;5030432;28;20021;-68
2021/08/26 04:51:15;;;;;;;1.70;0.40;;;;;;;;;;5037757;28;20124;-69
2021/08/26 04:53:42;;;;;;;4.45;0.57;;;;;;;;;;5037255;28;20490;-68
2021/08/26 04:56:09;;;;;;;3.08;0.45;;;;;;;;;;5032631;28;20047;-68
2021/08/26 04:58:39;;;;;;;4.13;0.40;;;;;;;;;;5033186;28;20393;-69
2021/08/26 05:01:06;;;;;;;4.97;0.70;;;;;;;;;;5033008;28;20079;-68
2021/08/26 05:03:33;;;;;;;3.10;0.50;;;;;;;;;;5035849;28;20039;-68
2021/08/26 05:06:03;;;;;;;2.90;0.50;;;;;;;;;;5035208;28;20050;-68
2021/08/26 05:08:30;;;;;;;5.90;0.30;;;;;;;;;;5039237;28;20074;-68
2021/08/26 05:10:57;;;;;;;3.08;0.50;;;;;;;;;;5035696;28;20613;-68
2021/08/26 05:13:24;;;;;;;5.03;0.38;;;;;;;;;;5043417;28;20047;-69
2021/08/26 05:15:51;;;;;;;5.70;0.30;;;;;;;;;;5032941;28;20018;-68
2021/08/26 05:18:18;;;;;;;3.28;0.30;;;;;;;;;;5035586;28;20502;-68
2021/08/26 05:20:45;;;;;;;4.47;0.30;;;;;;;;;;5033184;28;20055;-69
2021/08/26 05:23:12;;;;;;;6.78;0.40;;;;;;;;;;5038476;28;20025;-68
2021/08/26 05:25:40;;;;;;;4.47;0.50;;;;;;;;;;5037552;28;20018;-69
2021/08/26 05:28:07;;;;;;;5.43;0.90;;;;;;;;;;5036284;28;20155;-69
2021/08/26 05:30:37;;;;;;;2.92;0.50;;;;;;;;;;5037499;28;20552;-69
2021/08/26 05:33:05;;;;;;;2.40;0.40;;;;;;;;;;5031522;28;20034;-68
2021/08/26 05:35:32;;;;;;;8.00;0.90;;;;;;;;;;5035447;28;20028;-68
2021/08/26 05:37:59;;;;;;;3.03;0.50;;;;;;;;;;5031148;28;20053;-68
2021/08/26 05:40:26;;;;;;;3.22;0.40;;;;;;;;;;5041442;28;20070;-69
2021/08/26 05:42:53;;;;;;;3.28;0.68;;;;;;;;;;5033248;28;20033;-68
2021/08/26 05:45:21;;;;;;;3.72;0.43;;;;;;;;;;5037355;28;20025;-69
2021/08/26 05:47:54;;;;;;;4.22;1.25;;;;;;;;;;5033957;28;20115;-69
2021/08/26 05:50:22;;;;;;;5.80;0.73;;;;;;;;;;5034881;28;20117;-69
2021/08/26 05:52:51;;;;;;;2.90;0.60;;;;;;;;;;5037102;28;20021;-68
2021/08/26 05:55:19;;;;;;;4.88;0.40;;;;;;;;;;5038737;28;20386;-68
2021/08/26 05:57:46;;;;;;;11.05;0.50;;;;;;;;;;5036253;28;20112;-68
2021/08/26 06:00:14;;;;;;;5.57;0.60;;;;;;;;;;5038198;28;20029;-68
2021/08/26 06:02:41;;;;;;;10.68;0.93;;;;;;;;;;5034644;28;20024;-68
2021/08/26 06:05:09;;;;;;;11.20;1.38;;;;;;;;;;5036719;28;20021;-70
2021/08/26 06:07:38;;;;;;;6.45;0.93;;;;;;;;;;5042473;28;20021;-69
2021/08/26 06:10:06;;;;;;;7.18;0.75;;;;;;;;;;5036094;28;20018;-70
2021/08/26 06:12:33;;;;;;;5.75;0.65;;;;;;;;;;5035220;28;20108;-70
2021/08/26 06:15:00;;;;;;;5.55;0.73;;;;;;;;;;5040169;28;20477;-70
2021/08/26 06:17:27;;;;;;;3.45;0.52;;;;;;;;;;5034455;28;20486;-71
2021/08/26 06:19:55;;;;;;;3.47;0.35;;;;;;;;;;5037375;28;20025;-71
2021/08/26 06:22:22;;;;;;;3.35;0.38;;;;;;;;;;5044724;28;20037;-70
2021/08/26 06:24:49;;;;;;;6.25;0.47;;;;;;;;;;5035924;28;20102;-71
2021/08/26 06:27:16;;;;;;;1.88;0.40;;;;;;;;;;5036066;28;20034;-71
2021/08/26 06:29:43;;;;;;;3.88;0.60;;;;;;;;;;5032834;28;20037;-71
2021/08/26 06:32:10;;;;;;;1.52;0.38;;;;;;;;;;5037021;28;20477;-71
2021/08/26 06:34:38;;;;;;;3.00;0.32;;;;;;;;;;5041330;28;20032;-69
2021/08/26 06:37:05;;;;;;;4.40;0.40;;;;;;;;;;5056543;28;20089;-69
2021/08/26 06:39:32;;;;;;;4.10;0.77;;;;;;;;;;5033544;28;20033;-70
2021/08/26 06:41:59;;;;;;;8.73;0.40;;;;;;;;;;5038551;28;20033;-70
2021/08/26 06:44:26;;;;;;;12.40;0.80;;;;;;;;;;5045066;28;20477;-70
2021/08/26 06:46:53;;;;;;;5.60;0.77;;;;;;;;;;5052098;28;20036;-70
2021/08/26 06:49:22;;;;;;;2.13;0.30;;;;;;;;;;5046495;28;20026;-71
2021/08/26 06:51:50;;;;;;;5.63;0.90;;;;;;;;;;5038019;28;20021;-71
2021/08/26 06:54:17;;;;;;;4.32;0.60;;;;;;;;;;5033411;28;20033;-71
2021/08/26 06:56:44;;;;;;;2.05;0.28;;;;;;;;;;5036589;28;20393;-71
2021/08/26 06:59:11;;;;;;;4.82;0.70;;;;;;;;;;5032628;28;20736;-71
2021/08/26 07:01:38;;;;;;;5.07;0.70;;;;;;;;;;5036937;28;20040;-71
2021/08/26 07:04:05;;;;;;;3.85;0.30;;;;;;;;;;5041058;28;20028;-70
2021/08/26 07:06:33;;;;;;;4.07;0.50;;;;;;;;;;5040927;28;20028;-70
2021/08/26 07:09:00;;;;;;;2.15;0.68;;;;;;;;;;5049128;28;20041;-70
2021/08/26 07:11:28;;;;;;;6.30;0.47;;;;;;;;;;5034662;28;20445;-70
2021/08/26 07:13:55;;;;;;;3.30;0.30;;;;;;;;;;5038677;28;20032;-71
2021/08/26 07:16:22;;;;;;;6.30;0.40;;;;;;;;;;5033399;28;20036;-71
2021/08/26 07:18:49;;;;;;;5.88;0.40;;;;;;;;;;5035684;28;20404;-70
2021/08/26 07:21:16;;;;;;;8.15;0.80;;;;;;;;;;5049686;28;20038;-70
2021/08/26 07:23:43;;;;;;;2.90;0.40;;;;;;;;;;5043543;28;20458;-70
2021/08/26 07:26:11;;;;;;;4.43;0.30;;;;;;;;;;5041873;28;20025;-70
2021/08/26 07:28:38;;;;;;;8.00;0.50;;;;;;;;;;5037003;28;20036;-70
2021/08/26 07:31:05;;;;;;;6.55;0.50;;;;;;;;;;5045913;28;20104;-70
2021/08/26 07:33:32;;;;;;;4.22;0.50;;;;;;;;;;5033273;28;20029;-70
2021/08/26 07:35:59;;;;;;;6.30;0.57;;;;;;;;;;5031826;28;20026;-70
2021/08/26 07:38:26;;;;;;;2.88;0.68;;;;;;;;;;5038963;28;20053;-69
2021/08/26 07:40:54;;;;;;;3.50;0.77;;;;;;;;;;5036068;28;20020;-69
2021/08/26 07:43:25;;;;;;;4.90;1.05;;;;;;;;;;5037034;28;20392;-70
2021/08/26 07:45:55;;;;;;;8.15;1.20;;;;;;;;;;5033804;28;20033;-69
2021/08/26 07:48:22;;;;;;;7.80;1.00;;;;;;;;;;5037363;28;20044;-71
2021/08/26 07:50:52;;;;;;;13.20;1.58;;;;;;;;;;5037002;28;20060;-70
2021/08/26 07:53:20;;;;;;;10.65;1.35;;;;;;;;;;5032550;28;20033;-71
2021/08/26 07:55:47;;;;;;;5.85;1.33;;;;;;;;;;5031974;28;20127;-71
2021/08/26 07:58:14;;;;;;;5.93;1.13;;;;;;;;;;5032799;28;20037;-70
2021/08/26 08:00:41;;;;;;;9.07;1.38;;;;;;;;;;5032658;28;20148;-71
2021/08/26 08:03:08;;;;;;;7.78;1.50;;;;;;;;;;5034127;28;20026;-70
2021/08/26 08:05:36;;;;;;;8.93;1.00;;;;;;;;;;5039861;28;20033;-70
2021/08/26 08:08:03;;;;;;;6.18;1.25;;;;;;;;;;5043560;28;20029;-70
2021/08/26 08:10:30;;;;;;;8.25;1.13;;;;;;;;;;5038649;28;20501;-71
2021/08/26 08:12:57;;;;;;;10.93;2.17;;;;;;;;;;5037089;28;20039;-71
2021/08/26 08:15:24;;;;;;;9.90;1.67;;;;;;;;;;5039725;28;20458;-70
2021/08/26 08:17:51;;;;;;;8.02;1.55;;;;;;;;;;5036965;28;20477;-70
2021/08/26 08:20:19;;;;;;;8.80;2.03;;;;;;;;;;5039110;28;20025;-70
2021/08/26 08:22:48;;;;;;;14.90;4.35;;;;;;;;;;5041975;28;20029;-71
2021/08/26 08:25:15;;;;;;;10.88;3.20;;;;;;;;;;5039269;28;20032;-70
2021/08/26 08:27:43;;;;;;;11.77;2.83;;;;;;;;;;5032680;28;20025;-70
2021/08/26 08:30:10;;;;;;;9.82;2.63;;;;;;;;;;5030845;28;20041;-69
2021/08/26 08:32:37;;;;;;;9.48;1.83;;;;;;;;;;5041273;28;20052;-69
2021/08/26 08:35:04;;;;;;;8.52;2.00;;;;;;;;;;5034093;28;20040;-69
2021/08/26 08:37:32;;;;;;;9.27;2.17;;;;;;;;;;5032039;28;20414;-69
2021/08/26 08:39:59;;;;;;;9.40;1.90;;;;;;;;;;5036952;28;20045;-70
2021/08/26 08:42:31;;;;;;;9.13;1.70;;;;;;;;;;5040560;28;20628;-71
2021/08/26 08:44:58;;;;;;;9.88;1.40;;;;;;;;;;5031425;28;20034;-69
2021/08/26 08:47:26;;;;;;;10.25;2.10;;;;;;;;;;5030908;28;20045;-70
2021/08/26 08:49:53;;;;;;;11.70;2.33;;;;;;;;;;5041626;28;20028;-69
2021/08/26 08:52:21;;;;;;;7.72;2.10;;;;;;;;;;5035231;28;20500;-71
2021/08/26 08:54:50;;;;;;;10.95;2.10;;;;;;;;;;5041209;28;20482;-70
2021/08/26 08:57:17;;;;;;;5.95;2.08;;;;;;;;;;5038709;28;20077;-70
2021/08/26 08:59:44;;;;;;;12.48;3.47;;;;;;;;;;5035553;28;20106;-70
2021/08/26 09:02:11;;;;;;;5.97;2.17;;;;;;;;;;5050327;28;20155;-70
2021/08/26 09:05:00;;;;;;;7.38;2.22;;;;;;;;;;5045848;28;20074;-70
2021/08/26 09:07:28;;;;;;;9.70;2.78;;;;;;;;;;5041068;28;20028;-69
2021/08/26 09:09:55;;;;;;;7.68;1.85;;;;;;;;;;5040187;28;20428;-70
2021/08/26 09:12:42;;;;;;;17.77;2.47;;;;;;;;;;5032522;28;20091;-70
2021/08/26 09:15:09;;;;;;;8.20;2.42;;;;;;;;;;5033336;28;20158;-70
2021/08/26 09:17:38;;;;;;;7.03;1.65;;;;;;;;;;5048267;28;20381;-70
2021/08/26 09:20:06;;;;;;;12.13;3.13;;;;;;;;;;5053915;28;20494;-71
2021/08/26 09:22:33;;;;;;;8.13;1.58;;;;;;;;;;5049332;28;20033;-69
2021/08/26 09:25:01;;;;;;;9.70;2.05;;;;;;;;;;5044460;28;20021;-70
2021/08/26 09:27:31;;;;;;;7.13;1.92;;;;;;;;;;5048665;28;20549;-70
2021/08/26 09:30:02;;;;;;;10.07;2.05;;;;;;;;;;5044027;28;20032;-71
2021/08/26 09:32:44;;;;;;;13.43;2.80;;;;;;;;;;5035468;28;20026;-71
2021/08/26 09:35:14;;;;;;;7.15;2.30;;;;;;;;;;5049702;28;20028;-72
2021/08/26 09:37:53;;;;;;;8.68;3.25;;;;;;;;;;5041412;28;20098;-71
2021/08/26 09:40:22;;;;;;;10.45;2.55;;;;;;;;;;5042919;28;20045;-72
2021/08/26 09:42:56;;;;;;;6.85;2.90;;;;;;;;;;5046981;28;20047;-70
2021/08/26 09:45:23;;;;;;;;;;;;;;;;;;5041501;28;20017;-70
2021/08/26 09:48:05;;;;;;;10.52;3.08;;;;;;;;;;5054133;28;20304;-70
2021/08/26 09:50:38;;;;;;;9.65;2.53;;;;;;;;;;5046190;28;20135;-70
2021/08/26 09:53:06;;;;;;;8.60;3.17;;;;;;;;;;5049771;28;20033;-71
2021/08/26 09:55:51;;;;;;;10.20;2.88;;;;;;;;;;5040219;28;20022;-70
2021/08/26 09:58:19;;;;;;;7.53;2.58;;;;;;;;;;5046096;28;20536;-70
2021/08/26 10:00:47;;;;;;;6.65;2.45;;;;;;;;;;5034898;28;20044;-71
2021/08/26 10:03:15;;;;;;;7.22;2.60;;;;;;;;;;5035027;28;20559;-70
2021/08/26 10:05:44;;;;;;;9.15;2.97;;;;;;;;;;5035889;28;20024;-71
2021/08/26 10:08:12;;;;;;;7.28;2.38;;;;;;;;;;5039710;28;20034;-71
2021/08/26 10:10:43;;;;;;;6.78;2.38;;;;;;;;;;5042093;28;20029;-71
2021/08/26 10:13:10;;;;;;;10.93;1.98;;;;;;;;;;5037096;28;20037;-70
2021/08/26 10:15:38;;;;;;;4.72;1.40;;;;;;;;;;5034512;28;20394;-70
2021/08/26 10:18:05;;;;;;;7.50;1.52;;;;;;;;;;5035737;28;20099;-69
2021/08/26 10:20:32;;;;;;;9.60;1.80;;;;;;;;;;5052018;28;20025;-69
2021/08/26 10:23:00;;;;;;;5.85;1.45;;;;;;;;;;5037817;28;20496;-70
2021/08/26 10:25:27;;;;;;;7.50;2.03;;;;;;;;;;5035790;28;20025;-70
2021/08/26 10:27:58;;;;;;;7.20;1.40;;;;;;;;;;5038369;28;20036;-70
2021/08/26 10:30:29;;;;;;;7.88;1.55;;;;;;;;;;5043422;28;20013;-71
2021/08/26 10:33:09;;;;;;;7.97;1.67;;;;;;;;;;5034127;28;20474;-70
2021/08/26 10:36:05;;;;;;;5.65;2.05;;;;;;;;;;5033831;28;20060;-70
2021/08/26 10:38:33;;;;;;;6.88;1.92;;;;;;;;;;5048184;28;20056;-69
2021/08/26 10:41:20;;;;;;;8.05;1.60;;;;;;;;;;5041313;28;20033;-70
2021/08/26 10:43:59;;;;;;;8.48;2.03;;;;;;;;;;5047781;28;20489;-70
2021/08/26 10:46:44;;;;;;;7.53;2.33;;;;;;;;;;5034472;28;20385;-69
2021/08/26 10:49:11;;;;;;;6.80;1.85;;;;;;;;;;5043100;28;20029;-69
2021/08/26 10:51:43;;;;;;;8.63;1.48;;;;;;;;;;5033274;28;20033;-70
2021/08/26 10:54:28;;;;;;;2.65;0.90;;;;;;;;;;5048334;28;20167;-70
2021/08/26 10:56:56;;;;;;;10.35;2.15;;;;;;;;;;5037346;28;20079;-69
2021/08/26 10:59:33;;;;;;;10.27;2.40;;;;;;;;;;5042210;28;20025;-69
2021/08/26 11:02:00;;;;;;;8.77;1.80;;;;;;;;;;5047034;28;20108;-68
2021/08/26 11:04:37;;;;;;;7.28;1.42;;;;;;;;;;5048670;28;20131;-69
2021/08/26 11:07:04;;;;;;;6.88;1.40;;;;;;;;;;5037263;28;20024;-69
2021/08/26 11:09:32;;;;;;;7.10;1.38;;;;;;;;;;5033679;28;20048;-69
2021/08/26 11:12:04;;;;;;;8.02;1.90;;;;;;;;;;5045148;28;20041;-69
2021/08/26 11:14:33;;;;;;;10.88;2.40;;;;;;;;;;5040279;28;20045;-69
2021/08/26 11:17:04;;;;;;;8.30;2.90;;;;;;;;;;5033466;28;20017;-69
2021/08/26 11:19:34;;;;;;;12.77;2.33;;;;;;;;;;5033583;28;20445;-69
2021/08/26 11:22:03;;;;;;;6.15;2.03;;;;;;;;;;5032335;28;20112;-68
2021/08/26 11:24:31;;;;;;;5.60;1.85;;;;;;;;;;5033785;28;20433;-69
2021/08/26 11:26:59;;;;;;;6.80;2.38;;;;;;;;;;5032907;28;20022;-69
2021/08/26 11:29:26;;;;;;;10.68;2.38;;;;;;;;;;5033455;28;20105;-69
2021/08/26 11:31:53;;;;;;;6.50;2.22;;;;;;;;;;5033400;28;20474;-69
2021/08/26 11:34:20;;;;;;;10.20;4.40;;;;;;;;;;5043547;28;20021;-70
2021/08/26 11:37:06;;;;;;;11.20;4.63;;;;;;;;;;5052732;28;20489;-70
2021/08/26 11:39:37;;;;;;;10.20;4.13;;;;;;;;;;5032094;28;20095;-70
2021/08/26 11:42:05;;;;;;;11.55;3.42;;;;;;;;;;5039420;28;20419;-71
2021/08/26 11:44:32;;;;;;;7.45;3.35;;;;;;;;;;5046289;28;20057;-70
2021/08/26 11:47:00;;;;;;;11.32;3.70;;;;;;;;;;5041031;28;20636;-70
2021/08/26 11:49:37;;;;;;;9.30;3.55;;;;;;;;;;5034988;28;20067;-70
2021/08/26 11:52:05;;;;;;;14.82;4.32;;;;;;;;;;5036029;28;20021;-71
2021/08/26 11:54:36;;;;;;;10.20;2.67;;;;;;;;;;5032960;28;20398;-71
2021/08/26 11:57:04;;;;;;;10.00;1.95;;;;;;;;;;5032719;28;20425;-70
2021/08/26 11:59:31;;;;;;;9.90;4.00;;;;;;;;;;5036836;28;20386;-70
2021/08/26 12:02:16;;;;;;;13.18;3.75;;;;;;;;;;5040112;28;20021;-69
2021/08/26 12:04:48;;;;;;;10.23;5.32;;;;;;;;;;5052593;28;20454;-70
2021/08/26 12:07:34;;;;;;;15.18;6.50;;;;;;;;;;5045907;28;20043;-70
2021/08/26 12:10:14;;;;;;;20.00;5.55;;;;;;;;;;5032265;28;20433;-69
2021/08/26 12:13:01;;;;;;;12.25;4.50;;;;;;;;;;5032204;28;20021;-69
2021/08/26 12:15:47;;;;;;;11.10;3.85;;;;;;;;;;5032701;28;20482;-69
2021/08/26 12:18:15;;;;;;;10.35;3.95;;;;;;;;;;5042505;28;20034;-69
2021/08/26 12:20:44;;;;;;;11.60;3.28;;;;;;;;;;5042185;28;20482;-70
2021/08/26 12:23:15;;;;;;;12.77;3.80;;;;;;;;;;5032051;28;20025;-70
2021/08/26 12:25:44;;;;;;;11.95;3.78;;;;;;;;;;5045463;28;20017;-70
2021/08/26 12:28:12;;;;;;;16.02;4.03;;;;;;;;;;5031780;28;20021;-70
2021/08/26 12:30:43;;;;;;;8.60;3.35;;;;;;;;;;5042513;28;20027;-70
2021/08/26 12:33:10;;;;;;;17.20;4.45;;;;;;;;;;5032224;28;20029;-70
2021/08/26 12:35:56;;;;;;;13.27;4.18;;;;;;;;;;5047437;28;20032;-70
2021/08/26 12:38:39;;;;;;;15.25;4.93;;;;;;;;;;5033893;28;20080;-70
2021/08/26 12:41:08;;;;;;;11.13;4.13;;;;;;;;;;5036738;28;20100;-70
2021/08/26 12:43:44;;;;;;;13.05;4.28;;;;;;;;;;5032359;28;20657;-70
2021/08/26 12:46:13;;;;;;;11.40;3.90;;;;;;;;;;5032796;28;20109;-70
2021/08/26 12:48:41;;;;;;;12.82;5.32;;;;;;;;;;5042845;28;20025;-70
2021/08/26 12:51:09;;;;;;;13.93;3.95;;;;;;;;;;5032990;28;20029;-70
2021/08/26 12:53:37;;;;;;;21.55;5.43;;;;;;;;;;5040853;28;20037;-71
2021/08/26 12:56:12;;;;;;;14.65;4.38;;;;;;;;;;5039504;28;20028;-69
2021/08/26 12:58:39;;;;;;;12.90;3.88;;;;;;;;;;5038679;28;20042;-70
2021/08/26 13:01:16;;;;;;;8.98;3.38;;;;;;;;;;5034737;28;20051;-69
2021/08/26 13:03:47;;;;;;;9.43;4.05;;;;;;;;;;5040017;28;20028;-70
2021/08/26 13:06:15;;;;;;;19.33;4.13;;;;;;;;;;5034625;28;20037;-70
2021/08/26 13:08:48;;;;;;;14.73;4.28;;;;;;;;;;5038537;28;20496;-70
2021/08/26 13:11:15;;;;;;;15.57;5.25;;;;;;;;;;5036924;28;20056;-69
2021/08/26 13:13:52;;;;;;;9.85;4.70;;;;;;;;;;5031972;28;20378;-70
2021/08/26 13:16:19;;;;;;;14.55;4.32;;;;;;;;;;5037415;28;20036;-70
2021/08/26 13:18:46;;;;;;;11.27;4.43;;;;;;;;;;5032365;28;20038;-70
2021/08/26 13:21:15;;;;;;;15.10;5.07;;;;;;;;;;5036224;28;20500;-69
2021/08/26 13:23:45;;;;;;;8.77;4.35;;;;;;;;;;5032499;28;20037;-70
2021/08/26 13:26:13;;;;;;;14.50;4.75;;;;;;;;;;5041364;28;20025;-69
2021/08/26 13:28:40;;;;;;;13.65;4.55;;;;;;;;;;5041742;28;20018;-69
2021/08/26 13:31:08;;;;;;;11.70;5.05;;;;;;;;;;5039856;28;20427;-69
2021/08/26 13:33:35;;;;;;;11.90;4.68;;;;;;;;;;5043829;28;20035;-69
2021/08/26 13:36:02;;;;;;;12.43;5.38;;;;;;;;;;5035145;28;20029;-69
2021/08/26 13:38:30;;;;;;;12.23;4.45;;;;;;;;;;5033331;28;20077;-69
2021/08/26 13:40:57;;;;;;;15.25;4.65;;;;;;;;;;5036486;28;20024;-70
2021/08/26 13:43:24;;;;;;;9.70;4.70;;;;;;;;;;5036852;28;20503;-70
2021/08/26 13:45:51;;;;;;;18.90;5.07;;;;;;;;;;5038401;28;20057;-70
2021/08/26 13:48:19;;;;;;;13.85;6.05;;;;;;;;;;5032831;28;20029;-70
2021/08/26 13:50:46;;;;;;;16.33;5.07;;;;;;;;;;5036389;28;20032;-70
2021/08/26 13:53:13;;;;;;;14.43;5.28;;;;;;;;;;5037553;28;20515;-70
2021/08/26 13:55:41;;;;;;;19.00;5.70;;;;;;;;;;5035174;28;20033;-70
2021/08/26 13:58:08;;;;;;;26.48;6.25;;;;;;;;;;5031929;28;20441;-70
2021/08/26 14:00:41;;;;;;;17.15;7.97;;;;;;;;;;5031388;28;20030;-70
2021/08/26 14:03:08;;;;;;;13.57;6.15;;;;;;;;;;5038490;28;20047;-70
2021/08/26 14:05:35;;;;;;;17.10;7.35;;;;;;;;;;5035349;28;20100;-70
2021/08/26 14:08:02;;;;;;;16.92;6.60;;;;;;;;;;5047824;28;20079;-70
2021/08/26 14:10:29;;;;;;;13.30;5.95;;;;;;;;;;5034078;28;20025;-69
2021/08/26 14:12:57;;;;;;;10.80;5.63;;;;;;;;;;5035111;28;20060;-69
2021/08/26 14:15:24;;;;;;;15.75;5.22;;;;;;;;;;5034852;28;20421;-70
2021/08/26 14:17:52;;;;;;;12.50;4.38;;;;;;;;;;5050830;28;20051;-70
2021/08/26 14:20:19;;;;;;;14.13;5.88;;;;;;;;;;5046818;28;20025;-70
2021/08/26 14:22:46;;;;;;;15.63;6.47;;;;;;;;;;5046970;28;20026;-70
2021/08/26 14:25:13;;;;;;;12.43;5.88;;;;;;;;;;5037759;28;20030;-69
2021/08/26 14:27:40;;;;;;;16.88;7.15;;;;;;;;;;5048054;28;20033;-69
2021/08/26 14:30:08;;;;;;;12.80;6.45;;;;;;;;;;5044482;28;20376;-69
2021/08/26 14:32:36;;;;;;;12.25;5.60;;;;;;;;;;5034998;28;20021;-69
2021/08/26 14:35:05;;;;;;;11.88;5.30;;;;;;;;;;5042193;28;20710;-69
2021/08/26 14:37:33;;;;;;;11.43;5.50;;;;;;;;;;5037862;28;20056;-70
2021/08/26 14:40:00;;;;;;;13.38;6.05;;;;;;;;;;5045329;28;20024;-70
2021/08/26 14:42:27;;;;;;;16.65;6.78;;;;;;;;;;5034283;28;20076;-70
2021/08/26 14:44:54;;;;;;;17.40;7.80;;;;;;;;;;5036275;28;20033;-70
2021/08/26 14:47:22;;;;;;;14.90;7.38;;;;;;;;;;5035699;28;20087;-70
2021/08/26 14:49:49;;;;;;;19.10;7.18;;;;;;;;;;5050121;28;20017;-70
2021/08/26 14:52:17;;;;;;;15.38;7.57;;;;;;;;;;5040920;28;20372;-70
2021/08/26 14:54:44;;;;;;;6.88;4.05;;;;;;;;;;5032941;28;20033;-70
2021/08/26 14:57:11;;;;;;;13.75;4.15;;;;;;;;;;5043009;28;20040;-70